Time;durP1;ratioP1;P1;durP2;ratioP2;P2;SDS_P1;SDS_P2;PMS_P1;PMS_P2;Temp;Humidity;BMP_temperature;BMP_pressure;BME280_temperature;BME280_humidity;BME280_pressure;Samples;Min_cycle;Max_cycle;Signal;HPM_P1;HPM_P2
2021/01/11 00:00:39;;;;;;;5.83;4.27;;;-2.30;98.40;;;;;;5039982;28;20473;-77
2021/01/11 00:03:05;;;;;;;4.50;3.47;;;-2.20;97.00;;;;;;5042763;28;20463;-78
2021/01/11 00:05:30;;;;;;;6.22;3.80;;;-2.50;96.80;;;;;;5040955;28;20417;-77
2021/01/11 00:07:56;;;;;;;5.83;4.00;;;-3.30;97.30;;;;;;5040062;28;20441;-78
2021/01/11 00:10:22;;;;;;;5.90;4.00;;;-2.90;99.90;;;;;;5042100;28;20864;-76
2021/01/11 00:12:47;;;;;;;5.20;3.60;;;-2.40;97.50;;;;;;5041629;28;20730;-76
2021/01/11 00:15:17;;;;;;;5.97;3.63;;;-2.60;97.50;;;;;;5038753;28;21182;-75
2021/01/11 00:17:43;;;;;;;5.15;3.40;;;-2.90;98.20;;;;;;5041296;28;20472;-78
2021/01/11 00:20:09;;;;;;;6.88;4.10;;;;;;;;;;5042320;28;20373;-78
2021/01/11 00:22:35;;;;;;;6.88;4.05;;;-2.50;96.50;;;;;;5037184;28;20409;-77
2021/01/11 00:25:06;;;;;;;4.77;4.03;;;-2.80;97.90;;;;;;5039124;28;20457;-77
2021/01/11 00:27:31;;;;;;;5.63;3.60;;;-2.70;97.60;;;;;;5041665;28;20373;-78
2021/01/11 00:29:57;;;;;;;4.50;3.10;;;-2.40;98.10;;;;;;5040700;28;20393;-77
2021/01/11 00:32:23;;;;;;;5.40;3.53;;;-3.10;99.90;;;;;;5039963;28;20423;-78
2021/01/11 00:34:49;;;;;;;4.10;3.50;;;-2.80;99.90;;;;;;5040433;28;21082;-78
2021/01/11 00:37:14;;;;;;;3.85;2.80;;;-3.00;98.20;;;;;;5046132;28;20856;-77
2021/01/11 00:39:40;;;;;;;4.50;3.50;;;-3.00;98.30;;;;;;5039362;28;20417;-78
2021/01/11 00:42:05;;;;;;;5.80;3.60;;;-1.50;99.40;;;;;;5041154;28;20806;-77
2021/01/11 00:44:31;;;;;;;5.83;3.73;;;-3.10;99.90;;;;;;5039567;28;20429;-77
2021/01/11 00:47:02;;;;;;;6.82;3.78;;;-3.10;99.00;;;;;;5039600;28;20385;-78
2021/01/11 00:49:28;;;;;;;6.70;3.90;;;-3.20;99.90;;;;;;5040093;28;21058;-77
2021/01/11 00:51:54;;;;;;;4.45;3.50;;;-3.50;99.90;;;;;;5039788;28;20408;-78
2021/01/11 00:54:20;;;;;;;4.93;3.53;;;-3.50;99.90;;;;;;5038306;28;20421;-77
2021/01/11 00:56:46;;;;;;;4.40;3.30;;;-3.40;99.90;;;;;;5039991;28;20393;-78
2021/01/11 00:59:13;;;;;;;7.97;3.33;;;-3.50;99.90;;;;;;5041759;28;20386;-77
2021/01/11 01:01:47;;;;;;;4.18;3.40;;;-3.00;99.90;;;;;;5039659;28;20394;-77
2021/01/11 01:04:12;;;;;;;5.00;3.10;;;-3.00;99.90;;;;;;5038546;28;20663;-76
2021/01/11 01:06:38;;;;;;;4.22;2.85;;;-3.50;99.90;;;;;;5040464;28;20464;-76
2021/01/11 01:09:04;;;;;;;4.30;3.30;;;-3.50;99.90;;;;;;5041288;28;20858;-76
2021/01/11 01:11:29;;;;;;;4.32;3.55;;;-3.50;99.20;;;;;;5038174;28;21102;-76
2021/01/11 01:13:55;;;;;;;4.45;3.22;;;-3.00;99.50;;;;;;5041399;28;20591;-76
2021/01/11 01:16:27;;;;;;;4.57;3.40;;;-3.30;99.80;;;;;;5040132;28;20396;-76
2021/01/11 01:18:54;;;;;;;3.90;3.38;;;-3.30;99.90;;;;;;5038814;28;20855;-76
2021/01/11 01:21:20;;;;;;;4.03;3.20;;;-3.70;99.90;;;;;;5040595;28;20738;-76
2021/01/11 01:23:46;;;;;;;5.03;3.92;;;-3.40;99.90;;;;;;5040010;28;20874;-76
2021/01/11 01:26:11;;;;;;;4.35;3.38;;;-3.60;99.90;;;;;;5038389;28;20392;-76
2021/01/11 01:28:37;;;;;;;6.20;3.60;;;-3.80;99.90;;;;;;5039342;28;20393;-76
2021/01/11 01:31:03;;;;;;;4.60;3.37;;;-3.70;99.90;;;;;;5040440;28;20503;-77
2021/01/11 01:33:28;;;;;;;4.50;3.20;;;-3.70;99.90;;;;;;5039687;28;20468;-76
2021/01/11 01:35:54;;;;;;;5.57;3.78;;;-3.10;99.90;;;;;;5038130;28;20401;-77
2021/01/11 01:38:20;;;;;;;3.40;2.58;;;-3.40;99.90;;;;;;5039333;28;20418;-77
2021/01/11 01:40:46;;;;;;;5.30;3.27;;;-3.40;99.90;;;;;;5038844;28;20427;-77
2021/01/11 01:43:13;;;;;;;4.97;3.00;;;-3.30;99.90;;;;;;5036619;28;20901;-77
2021/01/11 01:45:39;;;;;;;4.80;3.65;;;-3.50;99.90;;;;;;5039073;28;20479;-77
2021/01/11 01:48:06;;;;;;;3.88;3.50;;;-3.90;99.90;;;;;;5040844;28;20389;-76
2021/01/11 01:50:32;;;;;;;4.70;3.10;;;-3.60;99.90;;;;;;5037580;28;20465;-76
2021/01/11 01:52:58;;;;;;;4.53;3.10;;;-3.80;99.90;;;;;;5040645;28;20386;-77
2021/01/11 01:55:24;;;;;;;3.40;2.70;;;-4.00;99.90;;;;;;5039617;28;20495;-77
2021/01/11 01:57:55;;;;;;;5.50;3.63;;;-3.70;99.90;;;;;;5038138;28;20799;-76
2021/01/11 02:00:22;;;;;;;5.55;3.30;;;-3.90;99.90;;;;;;5038879;28;20382;-77
2021/01/11 02:02:47;;;;;;;5.00;3.20;;;-3.60;99.90;;;;;;5040337;28;20424;-77
2021/01/11 02:05:13;;;;;;;3.77;2.67;;;-3.50;99.90;;;;;;5038321;28;20619;-76
2021/01/11 02:07:49;;;;;;;4.40;3.00;;;-3.90;99.90;;;;;;5037333;28;20903;-77
2021/01/11 02:10:37;;;;;;;4.10;2.90;;;-3.80;99.10;;;;;;5039087;28;20393;-77
2021/01/11 02:13:24;;;;;;;5.20;3.42;;;-3.70;99.90;;;;;;5040876;28;20400;-77
2021/01/11 02:16:22;;;;;;;5.80;3.90;;;-3.90;99.90;;;;;;5038697;28;20385;-76
2021/01/11 02:19:14;;;;;;;5.18;3.20;;;-4.40;99.90;;;;;;5039643;28;20398;-77
2021/01/11 02:21:55;;;;;;;5.20;3.00;;;-4.10;99.90;;;;;;5039156;28;20394;-78
2021/01/11 02:25:02;;;;;;;3.20;2.90;;;-3.90;99.90;;;;;;5044497;28;20831;-77
2021/01/11 02:27:48;;;;;;;4.40;2.88;;;-4.00;99.90;;;;;;5040139;28;20409;-77
2021/01/11 02:34:11;;;;;;;3.30;2.58;;;-3.90;99.90;;;;;;5030618;28;20402;-76
2021/01/11 02:36:39;;;;;;;4.45;2.80;;;-4.10;99.90;;;;;;5038569;28;20496;-77
2021/01/11 02:39:05;;;;;;;4.50;2.83;;;-4.30;99.90;;;;;;5040584;28;20393;-76
2021/01/11 02:42:08;;;;;;;4.77;3.33;;;-4.50;99.90;;;;;;5039510;28;20385;-76
2021/01/11 02:50:54;;;;;;;4.53;3.40;;;-4.20;99.90;;;;;;5016448;28;20403;-76
2021/01/11 02:57:19;;;;;;;;;;;;;;;;;;;;;
2021/01/11 03:04:04;;;;;;;5.35;3.78;;;-3.90;99.90;;;;;;4907400;29;20416;-77
2021/01/11 03:06:31;;;;;;;5.03;3.50;;;-4.10;99.90;;;;;;4924082;28;20428;-76
2021/01/11 03:09:07;;;;;;;4.38;2.83;;;-4.30;99.90;;;;;;5024536;28;21066;-76
2021/01/11 03:11:36;;;;;;;4.20;3.08;;;-4.10;99.90;;;;;;5038889;28;20392;-76
2021/01/11 03:14:03;;;;;;;3.40;3.05;;;-3.90;99.90;;;;;;5042159;28;20445;-76
2021/01/11 03:17:15;;;;;;;4.97;3.30;;;-4.10;99.90;;;;;;5040509;28;20390;-76
2021/01/11 03:26:28;;;;;;;3.30;2.90;;;-4.10;99.90;;;;;;5042570;28;20413;-76
2021/01/11 03:28:53;;;;;;;4.95;3.20;;;-4.60;99.90;;;;;;5040731;28;20390;-77
2021/01/11 03:31:21;;;;;;;3.67;2.53;;;-4.30;99.90;;;;;;5041172;28;20389;-77
2021/01/11 03:33:46;;;;;;;3.65;2.75;;;-4.60;99.90;;;;;;5041493;28;20389;-77
2021/01/11 03:36:12;;;;;;;4.97;3.30;;;-4.80;99.90;;;;;;5040320;28;20385;-77
2021/01/11 03:38:41;;;;;;;3.65;2.97;;;-4.30;99.90;;;;;;5040592;28;20389;-77
2021/01/11 03:41:08;;;;;;;4.15;3.38;;;-4.80;99.90;;;;;;5041585;28;20385;-77
2021/01/11 03:43:37;;;;;;;4.97;3.05;;;-4.40;99.90;;;;;;5042221;28;20507;-76
2021/01/11 03:46:02;;;;;;;4.57;3.60;;;-4.10;99.90;;;;;;5042793;28;20455;-76
2021/01/11 03:48:28;;;;;;;5.00;3.40;;;-4.50;99.90;;;;;;5041452;28;20865;-77
2021/01/11 03:50:54;;;;;;;3.80;3.07;;;-4.90;99.90;;;;;;5039952;28;20381;-77
2021/01/11 03:53:19;;;;;;;4.90;3.00;;;-4.20;99.90;;;;;;5036398;28;20820;-77
2021/01/11 03:55:45;;;;;;;4.63;3.10;;;-4.40;99.90;;;;;;5037834;28;20382;-77
2021/01/11 03:58:11;;;;;;;5.37;3.00;;;-4.30;99.90;;;;;;5038517;28;20895;-77
2021/01/11 04:00:36;;;;;;;3.95;2.60;;;-4.50;99.90;;;;;;5040286;28;20408;-77
2021/01/11 04:03:05;;;;;;;4.53;2.90;;;-4.50;99.90;;;;;;5040192;28;20411;-78
2021/01/11 04:05:31;;;;;;;4.53;3.30;;;-4.60;99.90;;;;;;5040461;28;20558;-77
2021/01/11 04:07:57;;;;;;;3.72;2.75;;;-4.80;99.90;;;;;;5039510;28;20389;-77
2021/01/11 04:10:23;;;;;;;3.80;2.93;;;-4.90;99.90;;;;;;5040287;28;20901;-78
2021/01/11 04:12:49;;;;;;;4.50;3.63;;;-4.90;99.90;;;;;;5039857;28;20531;-77
2021/01/11 04:15:15;;;;;;;6.15;3.58;;;-5.00;99.90;;;;;;5045103;28;20401;-77
2021/01/11 04:17:41;;;;;;;4.47;3.75;;;-4.70;99.90;;;;;;5039774;28;20393;-78
2021/01/11 04:20:07;;;;;;;3.80;2.70;;;-4.70;99.90;;;;;;5041430;28;20455;-78
2021/01/11 04:22:33;;;;;;;5.75;4.10;;;-4.50;99.90;;;;;;5039275;28;20382;-77
2021/01/11 04:24:59;;;;;;;4.40;3.05;;;-4.60;99.90;;;;;;5037543;28;20459;-78
2021/01/11 04:27:24;;;;;;;4.70;2.90;;;-5.10;99.90;;;;;;5041566;28;20381;-78
2021/01/11 04:29:50;;;;;;;4.07;2.95;;;-5.00;99.90;;;;;;5040720;28;20385;-77
2021/01/11 04:32:16;;;;;;;5.45;2.97;;;-4.70;99.90;;;;;;5045547;28;20459;-78
2021/01/11 04:34:41;;;;;;;4.37;3.27;;;-5.00;99.90;;;;;;5039546;28;20452;-78
2021/01/11 04:37:08;;;;;;;5.32;3.20;;;-5.10;99.90;;;;;;5044204;28;20389;-78
2021/01/11 04:39:34;;;;;;;5.00;2.97;;;-5.10;99.90;;;;;;5039834;28;20389;-77
2021/01/11 04:42:02;;;;;;;5.57;3.60;;;-5.00;99.90;;;;;;5039865;28;20401;-77
2021/01/11 04:44:33;;;;;;;4.57;2.90;;;-5.10;99.90;;;;;;5039514;28;20422;-78
2021/01/11 04:46:59;;;;;;;4.30;2.50;;;-4.90;99.90;;;;;;5039760;28;20385;-77
2021/01/11 04:49:25;;;;;;;4.40;3.20;;;-4.80;99.90;;;;;;5039350;28;20389;-77
2021/01/11 04:51:52;;;;;;;5.35;2.65;;;-4.80;99.90;;;;;;5038201;28;21682;-77
2021/01/11 04:54:18;;;;;;;5.65;3.70;;;-4.90;99.90;;;;;;5037865;28;20413;-77
2021/01/11 04:56:47;;;;;;;5.15;2.75;;;-5.10;99.90;;;;;;5038549;28;20953;-78
2021/01/11 04:59:17;;;;;;;6.43;3.75;;;-4.50;99.90;;;;;;5040781;28;20798;-79
2021/01/11 05:01:47;;;;;;;4.57;3.20;;;-5.10;99.90;;;;;;5040527;28;20456;-78
2021/01/11 05:04:14;;;;;;;5.07;3.03;;;-4.70;99.90;;;;;;5038802;28;20406;-76
2021/01/11 05:06:47;;;;;;;4.38;3.10;;;-5.20;99.90;;;;;;5038937;28;20397;-77
2021/01/11 05:09:14;;;;;;;5.20;3.30;;;-5.00;99.90;;;;;;5038321;28;20394;-77
2021/01/11 05:11:40;;;;;;;4.40;2.97;;;-5.30;99.90;;;;;;5040458;28;20402;-76
2021/01/11 05:14:06;;;;;;;6.57;3.50;;;-4.80;99.90;;;;;;5037689;28;20420;-77
2021/01/11 05:16:32;;;;;;;5.68;3.13;;;-5.20;99.90;;;;;;5037769;28;21171;-77
2021/01/11 05:19:24;;;;;;;4.53;2.90;;;-4.70;99.90;;;;;;5038545;28;20386;-77
2021/01/11 05:21:51;;;;;;;5.50;4.22;;;-5.10;99.90;;;;;;5038302;28;20370;-77
2021/01/11 05:24:34;;;;;;;5.20;3.40;;;-5.20;99.90;;;;;;5037291;28;20425;-77
2021/01/11 05:27:02;;;;;;;5.05;3.50;;;-5.10;99.90;;;;;;5037338;28;20495;-77
2021/01/11 05:29:28;;;;;;;6.65;3.78;;;-5.00;99.90;;;;;;5041015;28;20382;-77
2021/01/11 05:32:00;;;;;;;5.73;3.70;;;-4.60;99.90;;;;;;5038129;28;20392;-76
2021/01/11 05:34:52;;;;;;;5.45;3.70;;;-5.00;99.90;;;;;;5036311;28;20391;-77
2021/01/11 05:37:40;;;;;;;6.35;4.15;;;-4.80;99.90;;;;;;5036899;28;20481;-78
2021/01/11 05:40:11;;;;;;;5.30;3.92;;;-4.70;99.90;;;;;;5036959;28;20393;-78
2021/01/11 05:42:38;;;;;;;6.28;3.47;;;-4.80;99.90;;;;;;5039696;28;20417;-78
2021/01/11 05:45:27;;;;;;;4.82;3.72;;;-4.60;99.90;;;;;;5038283;28;20564;-77
2021/01/11 05:48:12;;;;;;;5.63;3.65;;;-4.60;99.90;;;;;;5039395;28;20392;-78
2021/01/11 05:50:39;;;;;;;6.95;4.50;;;-4.90;99.90;;;;;;5040641;28;20457;-77
2021/01/11 05:53:13;;;;;;;5.63;3.88;;;-5.00;99.90;;;;;;5037985;28;20397;-78
2021/01/11 05:55:39;;;;;;;4.70;3.60;;;-4.90;99.90;;;;;;5037619;28;20438;-78
2021/01/11 05:58:05;;;;;;;5.13;3.50;;;-4.90;99.90;;;;;;5039676;28;20628;-77
2021/01/11 06:00:36;;;;;;;6.55;4.22;;;-4.70;99.90;;;;;;5039697;28;20390;-76
2021/01/11 06:03:03;;;;;;;6.75;4.60;;;-5.00;99.90;;;;;;5038045;28;20401;-77
2021/01/11 06:05:30;;;;;;;7.40;4.28;;;-4.70;99.90;;;;;;5041944;28;20417;-76
2021/01/11 06:07:57;;;;;;;6.90;5.22;;;-4.10;99.90;;;;;;5049129;28;20381;-76
2021/01/11 06:10:24;;;;;;;7.03;5.25;;;-5.00;99.90;;;;;;5048161;28;20409;-77
2021/01/11 06:12:50;;;;;;;7.80;4.95;;;-4.90;99.90;;;;;;5048233;28;20451;-77
2021/01/11 06:15:20;;;;;;;7.20;4.70;;;-4.80;99.90;;;;;;5048781;28;20385;-77
2021/01/11 06:17:48;;;;;;;7.70;4.80;;;-4.90;99.90;;;;;;5048946;28;20381;-76
2021/01/11 06:20:17;;;;;;;8.02;4.90;;;-4.70;99.90;;;;;;5049017;28;20467;-76
2021/01/11 06:22:45;;;;;;;7.00;4.72;;;-2.70;99.90;;;;;;5049067;28;20373;-77
2021/01/11 06:25:32;;;;;;;7.10;3.88;;;-5.20;99.90;;;;;;5048282;28;20547;-78
2021/01/11 06:28:04;;;;;;;6.13;3.97;;;-5.20;99.90;;;;;;5048191;28;20397;-78
2021/01/11 06:30:33;;;;;;;5.72;4.53;;;-4.80;99.90;;;;;;5048047;28;20487;-77
2021/01/11 06:33:25;;;;;;;7.80;4.80;;;-5.00;99.90;;;;;;5048488;28;20400;-78
2021/01/11 06:35:53;;;;;;;6.55;4.80;;;-5.10;99.90;;;;;;5044567;28;20745;-77
2021/01/11 06:38:30;;;;;;;5.63;4.18;;;-4.90;99.90;;;;;;5048584;28;20447;-76
2021/01/11 06:41:01;;;;;;;8.63;4.60;;;-4.90;99.90;;;;;;5047329;28;20894;-77
2021/01/11 06:43:40;;;;;;;6.25;4.10;;;-5.00;99.90;;;;;;5048866;28;20413;-76
2021/01/11 06:46:06;;;;;;;8.20;4.60;;;-4.90;99.90;;;;;;5048983;28;20459;-77
2021/01/11 06:48:33;;;;;;;6.70;4.80;;;-5.10;99.90;;;;;;5053081;28;20412;-77
2021/01/11 06:51:10;;;;;;;6.78;4.57;;;-5.00;99.90;;;;;;5051825;28;20893;-77
2021/01/11 06:53:37;;;;;;;5.88;4.38;;;-2.80;99.90;;;;;;5052821;28;20416;-77
2021/01/11 06:56:08;;;;;;;8.33;4.67;;;-3.30;99.90;;;;;;5051604;28;20431;-77
2021/01/11 06:58:35;;;;;;;6.85;4.47;;;-2.80;99.90;;;;;;5052973;28;20382;-77
2021/01/11 07:01:06;;;;;;;8.00;4.70;;;-4.80;99.90;;;;;;5051771;28;20377;-77
2021/01/11 07:03:48;;;;;;;7.75;4.57;;;-5.30;99.90;;;;;;5052439;28;20408;-77
2021/01/11 07:06:46;;;;;;;8.57;5.60;;;-4.70;99.90;;;;;;5051942;28;20421;-77
2021/01/11 07:09:19;;;;;;;6.97;4.28;;;-4.90;99.90;;;;;;5040202;28;20432;-77
2021/01/11 07:11:47;;;;;;;9.98;5.97;;;-4.80;99.90;;;;;;5051418;28;20850;-77
2021/01/11 07:14:15;;;;;;;6.65;4.30;;;-4.60;99.90;;;;;;5051110;28;20396;-77
2021/01/11 07:16:49;;;;;;;9.13;4.90;;;-5.00;99.90;;;;;;5051455;28;21075;-78
2021/01/11 07:19:20;;;;;;;6.47;4.60;;;-4.90;99.90;;;;;;5052389;28;20390;-77
2021/01/11 07:21:50;;;;;;;6.25;4.53;;;-4.10;99.90;;;;;;5051873;28;20472;-76
2021/01/11 07:24:17;;;;;;;6.90;4.68;;;-5.00;99.90;;;;;;5051894;28;20389;-76
2021/01/11 07:26:43;;;;;;;8.48;4.80;;;-5.30;99.90;;;;;;5052664;28;20729;-75
2021/01/11 07:29:10;;;;;;;9.20;5.80;;;;;;;;;;5051583;28;20390;-76
2021/01/11 07:31:39;;;;;;;8.90;4.78;;;-5.00;99.90;;;;;;5052546;28;20726;-76
2021/01/11 07:34:09;;;;;;;8.57;5.10;;;-3.10;99.90;;;;;;5050785;28;20500;-76
2021/01/11 07:36:40;;;;;;;7.87;5.40;;;-5.10;99.90;;;;;;5051724;28;20469;-76
2021/01/11 07:39:30;;;;;;;8.02;5.25;;;-5.10;99.90;;;;;;5052325;28;20443;-76
2021/01/11 07:42:00;;;;;;;7.37;5.00;;;-5.10;99.90;;;;;;5044618;28;20393;-76
2021/01/11 07:44:31;;;;;;;6.95;5.25;;;-5.20;99.90;;;;;;5052688;28;20414;-76
2021/01/11 07:47:00;;;;;;;12.23;5.93;;;-4.90;99.90;;;;;;5052236;28;20408;-77
2021/01/11 07:49:28;;;;;;;8.05;5.22;;;-5.00;99.90;;;;;;5052779;28;20393;-75
2021/01/11 07:52:00;;;;;;;8.32;5.82;;;-4.80;99.90;;;;;;5053129;28;20425;-78
2021/01/11 07:54:25;;;;;;;8.05;5.15;;;-5.10;99.90;;;;;;5050275;28;20397;-76
2021/01/11 07:56:51;;;;;;;7.70;5.43;;;-4.80;99.90;;;;;;5049934;28;20894;-76
2021/01/11 07:59:18;;;;;;;8.53;6.27;;;-3.20;99.90;;;;;;5050737;28;20862;-76
2021/01/11 08:01:48;;;;;;;7.80;5.40;;;-5.00;99.90;;;;;;5052211;28;20381;-76
2021/01/11 08:04:15;;;;;;;8.40;5.30;;;-4.80;99.90;;;;;;5051496;28;20398;-76
2021/01/11 08:06:56;;;;;;;10.65;6.20;;;-4.90;99.90;;;;;;5050880;28;20424;-76
2021/01/11 08:09:28;;;;;;;8.88;5.95;;;-4.80;99.90;;;;;;5051058;28;20390;-76
2021/01/11 08:12:17;;;;;;;11.43;6.55;;;-4.80;99.90;;;;;;5052087;28;20416;-77
2021/01/11 08:14:46;;;;;;;10.98;6.80;;;-4.40;99.90;;;;;;5047850;28;20397;-77
2021/01/11 08:17:15;;;;;;;9.43;6.63;;;-4.40;99.90;;;;;;5051524;28;20778;-76
2021/01/11 08:19:41;;;;;;;11.02;6.00;;;-2.90;99.90;;;;;;5052301;28;20378;-76
2021/01/11 08:22:09;;;;;;;8.93;5.80;;;-4.20;99.90;;;;;;5051508;28;20373;-76
2021/01/11 08:24:36;;;;;;;10.50;6.87;;;-4.10;99.90;;;;;;5052109;28;20409;-76
2021/01/11 08:27:14;;;;;;;12.20;7.15;;;-4.10;99.90;;;;;;5051282;28;20412;-76
2021/01/11 08:29:41;;;;;;;9.63;6.15;;;-4.40;99.90;;;;;;5052089;28;20378;-76
2021/01/11 08:32:11;;;;;;;10.55;6.13;;;-4.30;99.90;;;;;;5051455;28;20404;-76
2021/01/11 08:34:38;;;;;;;7.00;5.63;;;-3.70;99.90;;;;;;5051722;28;20385;-76
2021/01/11 08:37:32;;;;;;;8.75;6.05;;;-2.90;99.90;;;;;;5051349;28;20381;-76
2021/01/11 08:40:38;;;;;;;8.80;6.32;;;-4.00;99.90;;;;;;5052474;28;20431;-78
2021/01/11 08:43:19;;;;;;;10.50;6.30;;;-3.80;99.90;;;;;;5030373;28;21535;-77
2021/01/11 08:45:50;;;;;;;10.45;6.15;;;-3.70;99.90;;;;;;5050040;28;20421;-77
2021/01/11 08:48:23;;;;;;;9.30;6.27;;;-3.80;99.90;;;;;;5051263;28;20457;-78
2021/01/11 08:50:51;;;;;;;10.85;6.47;;;-1.90;99.90;;;;;;5052116;28;20457;-78
2021/01/11 08:53:28;;;;;;;8.75;5.72;;;-3.90;99.10;;;;;;5049821;28;20396;-77
2021/01/11 08:55:57;;;;;;;9.90;6.40;;;-3.50;99.90;;;;;;5051986;28;20921;-77
2021/01/11 08:58:24;;;;;;;9.50;6.72;;;-3.70;98.10;;;;;;5051422;28;20443;-79
2021/01/11 09:00:49;;;;;;;8.85;6.80;;;-3.40;99.90;;;;;;5051692;28;20385;-77
2021/01/11 09:03:15;;;;;;;8.23;6.10;;;-2.10;99.90;;;;;;5051080;28;20393;-79
2021/01/11 09:05:42;;;;;;;10.32;6.85;;;-2.00;99.90;;;;;;5066935;28;20492;-78
2021/01/11 09:08:19;;;;;;;8.63;6.25;;;-3.20;99.90;;;;;;5050856;28;20479;-77
2021/01/11 09:10:46;;;;;;;6.90;5.72;;;-2.20;99.90;;;;;;5051767;28;20386;-77
2021/01/11 09:13:22;;;;;;;9.13;5.82;;;-2.90;99.90;;;;;;5050652;28;20413;-77
2021/01/11 09:15:49;;;;;;;8.30;6.05;;;-1.90;99.90;;;;;;5051115;28;20475;-77
2021/01/11 09:18:15;;;;;;;11.07;6.15;;;-2.70;99.90;;;;;;5050582;28;20377;-76
2021/01/11 09:20:43;;;;;;;9.93;6.18;;;-3.40;99.90;;;;;;5049775;28;20385;-79
2021/01/11 09:23:10;;;;;;;9.20;6.47;;;-2.90;99.90;;;;;;5050470;28;20463;-77
2021/01/11 09:25:37;;;;;;;8.60;6.05;;;-2.40;99.90;;;;;;5051148;28;20413;-77
2021/01/11 09:28:05;;;;;;;6.97;5.07;;;-3.10;99.50;;;;;;5050453;28;20423;-78
2021/01/11 09:30:31;;;;;;;10.00;5.90;;;-2.90;99.40;;;;;;5051033;28;20421;-78
2021/01/11 09:32:58;;;;;;;8.07;5.45;;;-0.80;99.90;;;;;;5051127;28;20374;-78
2021/01/11 09:35:23;;;;;;;8.13;5.47;;;-2.70;99.90;;;;;;5050460;28;20386;-78
2021/01/11 09:37:49;;;;;;;7.00;5.20;;;-1.90;99.90;;;;;;5051349;28;20878;-78
2021/01/11 09:40:17;;;;;;;9.30;5.50;;;-2.60;98.50;;;;;;5049950;28;20803;-76
2021/01/11 09:42:44;;;;;;;6.90;4.95;;;-2.80;99.00;;;;;;5050775;28;20476;-76
2021/01/11 09:45:10;;;;;;;7.95;4.88;;;-2.70;99.10;;;;;;5050059;28;20499;-76
2021/01/11 09:47:36;;;;;;;8.13;5.50;;;-2.70;97.70;;;;;;5051000;28;20461;-76
2021/01/11 09:50:04;;;;;;;6.67;5.20;;;-1.10;99.90;;;;;;5050074;28;20377;-78
2021/01/11 09:52:30;;;;;;;6.47;4.60;;;-2.00;98.70;;;;;;5049633;28;20421;-77
2021/01/11 09:54:55;;;;;;;6.03;5.20;;;-1.90;97.30;;;;;;5050353;28;20417;-77
2021/01/11 09:57:21;;;;;;;5.83;4.93;;;-0.40;98.20;;;;;;5049812;28;20374;-76
2021/01/11 09:59:47;;;;;;;8.55;5.20;;;-2.20;97.00;;;;;;5050300;28;20409;-77
2021/01/11 10:02:13;;;;;;;9.40;5.63;;;-1.50;96.50;;;;;;5048135;28;20436;-77
2021/01/11 10:04:38;;;;;;;6.73;4.73;;;-1.60;96.00;;;;;;5066097;28;20413;-78
2021/01/11 10:07:06;;;;;;;7.90;4.65;;;-1.60;95.60;;;;;;5050092;28;20396;-79
2021/01/11 10:09:33;;;;;;;7.90;4.77;;;-1.30;95.10;;;;;;5048996;28;20390;-77
2021/01/11 10:12:01;;;;;;;6.70;4.78;;;-1.30;94.90;;;;;;5050907;28;20397;-75
2021/01/11 10:14:28;;;;;;;7.85;5.00;;;-2.00;96.50;;;;;;5050001;28;20421;-76
2021/01/11 10:16:54;;;;;;;7.07;4.90;;;-1.50;93.50;;;;;;5050529;28;20920;-77
2021/01/11 10:19:21;;;;;;;5.88;4.57;;;-1.20;93.30;;;;;;5049954;28;20377;-77
2021/01/11 10:21:47;;;;;;;8.20;5.80;;;-1.50;93.30;;;;;;5052714;28;20428;-77
2021/01/11 10:24:16;;;;;;;7.15;5.28;;;-1.30;93.30;;;;;;5053402;28;20386;-76
2021/01/11 10:26:46;;;;;;;8.38;5.00;;;-0.80;96.10;;;;;;5054485;28;20373;-76
2021/01/11 10:29:12;;;;;;;7.10;5.30;;;-0.90;93.60;;;;;;5053532;28;20474;-77
2021/01/11 10:31:40;;;;;;;7.38;4.65;;;0.90;94.20;;;;;;5054672;28;20421;-76
2021/01/11 10:34:05;;;;;;;7.20;5.20;;;0.90;96.20;;;;;;5053377;28;20381;-78
2021/01/11 10:36:43;;;;;;;8.50;5.88;;;-0.80;92.90;;;;;;5054272;28;20385;-76
2021/01/11 10:39:10;;;;;;;7.68;5.65;;;0.00;93.90;;;;;;5053422;28;20413;-76
2021/01/11 10:41:36;;;;;;;8.57;5.70;;;-0.60;92.60;;;;;;5053892;28;20788;-76
2021/01/11 10:44:02;;;;;;;8.75;6.18;;;0.70;93.10;;;;;;5053668;28;20405;-75
2021/01/11 10:46:28;;;;;;;8.45;5.70;;;0.10;95.40;;;;;;5052920;28;20413;-77
2021/01/11 10:48:53;;;;;;;7.00;5.45;;;1.30;96.10;;;;;;5054107;28;20381;-75
2021/01/11 10:51:22;;;;;;;9.30;6.33;;;0.30;97.20;;;;;;5053210;28;20829;-77
2021/01/11 10:53:49;;;;;;;8.77;5.88;;;0.90;93.70;;;;;;5052773;28;20397;-76
2021/01/11 10:56:15;;;;;;;10.30;6.50;;;1.20;93.60;;;;;;5053208;28;20389;-76
2021/01/11 10:58:40;;;;;;;9.73;6.70;;;-0.40;92.10;;;;;;5054267;28;20730;-78
2021/01/11 11:01:08;;;;;;;7.50;5.63;;;1.60;93.30;;;;;;5053373;28;20843;-80
2021/01/11 11:03:34;;;;;;;8.75;5.57;;;-0.20;92.20;;;;;;5053802;28;20382;-77
2021/01/11 11:06:00;;;;;;;8.82;6.63;;;-0.40;92.30;;;;;;5053859;28;20436;-77
2021/01/11 11:08:25;;;;;;;8.83;5.73;;;0.50;92.40;;;;;;5052773;28;20388;-77
2021/01/11 11:10:51;;;;;;;10.68;6.40;;;0.90;97.20;;;;;;5053698;28;20730;-77
2021/01/11 11:13:17;;;;;;;9.25;7.05;;;1.80;92.90;;;;;;5053376;28;20397;-77
2021/01/11 11:15:43;;;;;;;10.07;6.60;;;0.30;91.80;;;;;;5053557;28;20915;-77
2021/01/11 11:18:10;;;;;;;8.88;6.35;;;0.00;90.90;;;;;;5052874;28;20389;-78
2021/01/11 11:20:35;;;;;;;7.93;6.15;;;0.00;90.90;;;;;;5053466;28;20730;-77
2021/01/11 11:23:01;;;;;;;8.65;6.10;;;0.90;91.00;;;;;;5053960;28;20385;-77
2021/01/11 11:25:27;;;;;;;10.50;6.60;;;1.30;94.50;;;;;;5051385;28;20909;-77
2021/01/11 11:27:53;;;;;;;11.05;6.22;;;1.30;90.00;;;;;;5053289;28;20451;-77
2021/01/11 11:30:19;;;;;;;9.35;6.65;;;1.30;85.10;;;;;;5052396;28;20486;-78
2021/01/11 11:32:50;;;;;;;9.93;6.43;;;1.80;84.00;;;;;;5051518;28;20477;-77
2021/01/11 11:35:23;;;;;;;7.72;5.53;;;2.10;82.40;;;;;;5052340;28;20520;-77
2021/01/11 11:37:49;;;;;;;8.65;7.00;;;3.70;86.90;;;;;;5053160;28;20388;-78
2021/01/11 11:40:15;;;;;;;8.88;5.97;;;1.80;87.80;;;;;;5052154;28;20389;-78
2021/01/11 11:42:42;;;;;;;7.50;5.70;;;2.50;80.40;;;;;;5051609;28;20423;-79
2021/01/11 11:45:13;;;;;;;6.68;5.97;;;2.70;77.70;;;;;;5050737;28;20417;-79
2021/01/11 11:47:41;;;;;;;8.48;6.38;;;3.40;85.60;;;;;;5051997;28;20402;-78
2021/01/11 11:50:09;;;;;;;8.15;6.65;;;3.40;74.00;;;;;;5052258;28;20397;-81
2021/01/11 11:52:36;;;;;;;8.65;6.90;;;1.90;81.50;;;;;;5052482;28;20390;-77
2021/01/11 11:55:03;;;;;;;9.10;6.60;;;2.40;73.50;;;;;;5050028;28;20470;-80
2021/01/11 11:57:29;;;;;;;10.27;7.38;;;1.90;75.20;;;;;;5051644;28;20408;-79
2021/01/11 11:59:54;;;;;;;7.87;5.97;;;2.70;74.40;;;;;;5052770;28;20390;-79
2021/01/11 12:02:21;;;;;;;8.10;6.00;;;5.60;86.40;;;;;;5051816;28;20377;-80
2021/01/11 12:04:46;;;;;;;7.38;6.25;;;4.40;71.70;;;;;;5051359;28;20409;-80
2021/01/11 12:07:16;;;;;;;7.57;6.20;;;3.00;73.30;;;;;;5051846;28;20374;-80
2021/01/11 12:09:43;;;;;;;7.90;5.57;;;3.40;69.70;;;;;;5052694;28;20385;-79
2021/01/11 12:12:12;;;;;;;8.32;6.10;;;4.80;73.30;;;;;;5052075;28;20396;-80
2021/01/11 12:14:38;;;;;;;9.27;6.50;;;3.40;70.70;;;;;;5052858;28;20421;-80
2021/01/11 12:17:04;;;;;;;7.07;5.60;;;3.30;71.30;;;;;;5052699;28;20798;-78
2021/01/11 12:19:31;;;;;;;7.60;5.78;;;4.90;81.80;;;;;;5051509;28;20374;-78
2021/01/11 12:21:57;;;;;;;9.13;6.10;;;3.30;74.20;;;;;;5049174;28;20470;-78
2021/01/11 12:24:23;;;;;;;8.60;6.10;;;2.90;74.00;;;;;;5051268;28;20374;-79
2021/01/11 12:26:50;;;;;;;8.32;6.43;;;2.40;71.20;;;;;;5051535;28;20442;-79
2021/01/11 12:29:20;;;;;;;7.25;6.00;;;3.90;71.70;;;;;;5051203;28;20386;-79
2021/01/11 12:31:45;;;;;;;7.15;6.00;;;3.50;78.70;;;;;;5052045;28;20377;-79
2021/01/11 12:34:11;;;;;;;8.60;6.53;;;2.80;69.30;;;;;;5049795;28;20395;-82
2021/01/11 12:36:39;;;;;;;7.13;5.93;;;4.00;74.00;;;;;;5050028;28;20746;-80
2021/01/11 12:39:10;;;;;;;8.20;5.80;;;3.60;67.10;;;;;;5051459;28;20401;-79
2021/01/11 12:41:37;;;;;;;7.37;6.60;;;3.60;67.90;;;;;;5034191;28;20515;-79
2021/01/11 12:44:10;;;;;;;9.20;6.82;;;4.90;83.50;;;;;;5050845;28;20499;-79
2021/01/11 12:46:37;;;;;;;9.30;6.07;;;2.10;73.00;;;;;;5051302;28;20409;-78
2021/01/11 12:49:05;;;;;;;8.98;6.38;;;1.50;76.60;;;;;;5050759;28;20852;-78
2021/01/11 12:51:31;;;;;;;8.55;6.05;;;1.10;80.60;;;;;;5049154;28;21042;-78
2021/01/11 12:53:56;;;;;;;8.95;6.57;;;2.50;81.60;;;;;;5051184;28;20378;-79
2021/01/11 12:56:24;;;;;;;8.40;6.20;;;1.20;84.90;;;;;;5050516;28;20443;-80
2021/01/11 12:58:52;;;;;;;11.38;7.05;;;0.80;82.20;;;;;;5052253;28;20496;-78
2021/01/11 13:01:18;;;;;;;7.68;6.45;;;0.80;90.10;;;;;;5049597;28;20753;-79
2021/01/11 13:03:45;;;;;;;8.18;6.35;;;1.50;91.10;;;;;;5050205;28;20758;-79
2021/01/11 13:06:34;;;;;;;8.80;6.47;;;0.60;83.70;;;;;;5050735;28;20486;-78
2021/01/11 13:09:02;;;;;;;9.20;5.65;;;0.90;86.00;;;;;;5031244;28;20383;-79
2021/01/11 13:11:30;;;;;;;9.45;7.03;;;0.50;91.70;;;;;;5049181;28;20396;-79
2021/01/11 13:14:00;;;;;;;9.70;7.27;;;0.40;87.60;;;;;;5052359;28;20423;-79
2021/01/11 13:16:29;;;;;;;7.70;6.00;;;0.70;89.80;;;;;;5066777;28;20401;-79
2021/01/11 13:18:57;;;;;;;7.00;5.70;;;2.90;93.60;;;;;;5052139;28;20746;-79
2021/01/11 13:21:24;;;;;;;9.02;6.32;;;0.60;91.90;;;;;;5048897;28;20811;-80
2021/01/11 13:23:49;;;;;;;9.63;7.27;;;0.80;91.40;;;;;;5050105;28;20457;-78
2021/01/11 13:26:26;;;;;;;9.65;6.90;;;0.30;92.30;;;;;;5049348;28;20906;-81